Time;durP1;ratioP1;P1;durP2;ratioP2;P2;SDS_P1;SDS_P2;PMS_P1;PMS_P2;Temp;Humidity;BMP_temperature;BMP_pressure;BME280_temperature;BME280_humidity;BME280_pressure;Samples;Min_cycle;Max_cycle;Signal;HPM_P1;HPM_P2
2021/12/24 00:00:07;;;;;;;60.28;26.52;;;;;;;;;;5134529;27;20131;-69
2021/12/24 00:02:34;;;;;;;65.85;28.92;;;;;;;;;;5130396;27;20051;-70
2021/12/24 00:05:00;;;;;;;80.28;31.65;;;;;;;;;;5123331;27;20063;-70
2021/12/24 00:07:27;;;;;;;67.03;29.63;;;;;;;;;;5134490;27;20135;-71
2021/12/24 00:09:53;;;;;;;63.90;27.67;;;;;;;;;;5130956;27;20440;-71
2021/12/24 00:12:21;;;;;;;71.30;32.63;;;;;;;;;;5131543;27;20054;-70
2021/12/24 00:14:54;;;;;;;69.25;30.73;;;;;;;;;;5132934;27;20051;-71
2021/12/24 00:17:27;;;;;;;67.55;29.10;;;;;;;;;;5125483;27;20048;-71
2021/12/24 00:20:15;;;;;;;55.13;25.92;;;;;;;;;;5114986;27;20048;-69
2021/12/24 00:23:14;;;;;;;55.13;26.15;;;;;;;;;;5120228;27;20055;-71
2021/12/24 00:36:29;;;;;;;46.25;23.02;;;;;;;;;;5130630;27;20074;-70
2021/12/24 00:38:57;;;;;;;52.95;24.05;;;;;;;;;;5119030;27;20051;-70
2021/12/24 00:41:24;;;;;;;50.85;24.08;;;;;;;;;;5113782;27;20513;-70
2021/12/24 00:43:52;;;;;;;42.38;22.73;;;;;;;;;;5120643;27;20525;-70
2021/12/24 00:46:18;;;;;;;53.17;24.80;;;;;;;;;;5130162;27;20082;-69
2021/12/24 00:48:46;;;;;;;47.97;22.60;;;;;;;;;;5113321;27;20056;-70
2021/12/24 00:51:23;;;;;;;50.08;23.88;;;;;;;;;;5123089;27;20501;-70
2021/12/24 00:56:16;;;;;;;57.63;23.20;;;;;;;;;;5130519;27;20047;-65
2021/12/24 00:58:43;;;;;;;44.97;21.35;;;;;;;;;;5116506;27;20051;-69
2021/12/24 01:01:10;;;;;;;46.15;21.70;;;;;;;;;;5126382;27;20056;-69
2021/12/24 01:03:37;;;;;;;53.17;23.08;;;;;;;;;;5151048;27;20147;-69
2021/12/24 01:06:04;;;;;;;47.90;23.33;;;;;;;;;;5118963;27;20110;-70
2021/12/24 01:08:30;;;;;;;47.78;21.48;;;;;;;;;;5126402;27;20059;-70
2021/12/24 01:10:58;;;;;;;54.88;23.45;;;;;;;;;;5126632;27;20067;-69
2021/12/24 01:13:26;;;;;;;55.05;24.73;;;;;;;;;;5129247;27;20163;-69
2021/12/24 01:16:00;;;;;;;52.53;23.65;;;;;;;;;;5112963;27;20056;-71
2021/12/24 01:18:41;;;;;;;57.00;25.38;;;;;;;;;;5116815;27;20560;-71
2021/12/24 01:23:51;;;;;;;47.83;21.65;;;;;;;;;;5112263;27;20074;-70
2021/12/24 01:40:18;;;;;;;53.42;22.63;;;;;;;;;;5121337;27;20146;-70
2021/12/24 01:45:15;;;;;;;56.08;24.83;;;;;;;;;;5114951;27;20048;-70
2021/12/24 01:47:41;;;;;;;66.38;27.23;;;;;;;;;;5130923;27;20051;-69
2021/12/24 01:50:08;;;;;;;78.22;29.77;;;;;;;;;;5130218;27;20470;-69
2021/12/24 01:52:34;;;;;;;66.72;28.15;;;;;;;;;;5133899;27;20071;-69
2021/12/24 01:55:00;;;;;;;82.50;30.45;;;;;;;;;;5124316;27;20047;-70
2021/12/24 01:57:27;;;;;;;68.50;27.95;;;;;;;;;;5128741;27;20054;-71
2021/12/24 01:59:53;;;;;;;90.65;33.42;;;;;;;;;;5123169;27;20051;-69
2021/12/24 02:02:19;;;;;;;102.40;33.35;;;;;;;;;;5125421;27;20055;-70
2021/12/24 02:04:46;;;;;;;82.03;30.40;;;;;;;;;;5130862;27;20097;-70
2021/12/24 02:07:12;;;;;;;86.90;32.67;;;;;;;;;;5132851;27;20056;-70
2021/12/24 02:09:38;;;;;;;85.20;32.30;;;;;;;;;;5114195;27;20071;-70
2021/12/24 02:12:06;;;;;;;80.82;30.02;;;;;;;;;;5126027;27;20124;-70
2021/12/24 02:14:36;;;;;;;84.00;33.90;;;;;;;;;;5124688;27;20052;-71
2021/12/24 02:17:28;;;;;;;74.25;29.58;;;;;;;;;;5124734;27;20505;-70
2021/12/24 02:30:54;;;;;;;72.20;28.55;;;;;;;;;;5121359;27;20048;-70
2021/12/24 02:33:21;;;;;;;75.82;28.80;;;;;;;;;;5132650;27;20051;-70
2021/12/24 02:35:47;;;;;;;67.40;27.20;;;;;;;;;;5125199;27;20052;-70
2021/12/24 02:38:14;;;;;;;74.97;25.17;;;;;;;;;;5131958;27;20478;-69
2021/12/24 02:40:40;;;;;;;58.75;24.40;;;;;;;;;;5124973;27;20056;-69
2021/12/24 02:43:12;;;;;;;60.28;25.33;;;;;;;;;;5124894;27;20058;-69
2021/12/24 02:45:40;;;;;;;62.70;25.23;;;;;;;;;;5114702;27;20059;-69
2021/12/24 02:48:23;;;;;;;58.47;24.00;;;;;;;;;;5133304;27;20060;-69
2021/12/24 02:56:25;;;;;;;49.13;21.13;;;;;;;;;;5129903;27;20065;-70
2021/12/24 02:58:51;;;;;;;39.72;20.65;;;;;;;;;;5120837;27;20087;-69
2021/12/24 03:01:19;;;;;;;50.58;20.65;;;;;;;;;;5123618;27;20060;-69
2021/12/24 03:03:48;;;;;;;43.08;17.95;;;;;;;;;;5125818;27;20063;-69
2021/12/24 03:06:15;;;;;;;40.80;18.90;;;;;;;;;;5128575;27;20101;-69
2021/12/24 03:08:42;;;;;;;41.08;18.70;;;;;;;;;;5129642;27;20061;-69
2021/12/24 03:11:08;;;;;;;48.42;18.65;;;;;;;;;;5124919;27;20067;-69
2021/12/24 03:13:36;;;;;;;37.30;18.67;;;;;;;;;;5127632;27;20056;-69
2021/12/24 03:16:03;;;;;;;38.45;18.83;;;;;;;;;;5118765;27;20056;-70
2021/12/24 03:18:32;;;;;;;34.45;17.20;;;;;;;;;;5134822;27;20503;-70
2021/12/24 03:21:06;;;;;;;32.20;15.23;;;;;;;;;;5128998;27;20062;-69
2021/12/24 03:23:40;;;;;;;25.60;14.32;;;;;;;;;;5134386;27;20055;-69
2021/12/24 03:26:08;;;;;;;32.05;14.40;;;;;;;;;;5119429;27;20524;-70
2021/12/24 03:28:34;;;;;;;29.98;14.75;;;;;;;;;;5117666;27;20606;-69
2021/12/24 03:31:02;;;;;;;32.13;15.45;;;;;;;;;;5131523;27;20080;-69
2021/12/24 03:33:28;;;;;;;32.13;14.50;;;;;;;;;;5125835;27;20048;-70
2021/12/24 03:35:55;;;;;;;28.92;14.85;;;;;;;;;;5134003;27;20085;-70
2021/12/24 03:38:21;;;;;;;33.97;15.20;;;;;;;;;;5132439;27;20066;-69
2021/12/24 03:40:48;;;;;;;41.65;15.18;;;;;;;;;;5132714;27;20058;-69
2021/12/24 03:43:14;;;;;;;35.80;16.80;;;;;;;;;;5134974;27;20047;-69
2021/12/24 03:45:49;;;;;;;31.83;15.75;;;;;;;;;;5131614;27;20054;-69
2021/12/24 03:48:24;;;;;;;32.33;14.73;;;;;;;;;;5125533;27;20054;-70
2021/12/24 03:51:08;;;;;;;38.08;15.82;;;;;;;;;;5136135;27;20055;-70
2021/12/24 03:56:19;;;;;;;32.35;14.23;;;;;;;;;;5132075;27;20054;-70
2021/12/24 03:58:45;;;;;;;45.05;16.55;;;;;;;;;;5131620;27;20074;-70
2021/12/24 04:01:12;;;;;;;36.05;15.95;;;;;;;;;;5115786;27;20040;-70
2021/12/24 04:03:38;;;;;;;33.60;14.10;;;;;;;;;;5116626;27;20470;-70
2021/12/24 04:06:05;;;;;;;37.25;15.55;;;;;;;;;;5118261;27;20052;-70
2021/12/24 04:08:31;;;;;;;34.55;14.60;;;;;;;;;;5121131;27;20568;-69
2021/12/24 04:10:57;;;;;;;22.92;13.32;;;;;;;;;;5119344;27;20051;-70
2021/12/24 04:13:24;;;;;;;46.95;15.57;;;;;;;;;;5134235;27;20100;-70
2021/12/24 04:15:51;;;;;;;42.72;15.07;;;;;;;;;;5134024;27;20047;-70
2021/12/24 04:18:24;;;;;;;29.45;14.45;;;;;;;;;;5120322;27;20048;-70
2021/12/24 04:26:21;;;;;;;25.42;12.85;;;;;;;;;;5120768;27;20058;-70
2021/12/24 04:28:52;;;;;;;34.28;14.55;;;;;;;;;;5129920;27;20135;-69
2021/12/24 04:31:23;;;;;;;30.48;14.27;;;;;;;;;;5115558;27;20059;-70
2021/12/24 04:33:51;;;;;;;31.92;13.77;;;;;;;;;;5130720;27;20144;-70
2021/12/24 04:39:34;;;;;;;29.17;12.77;;;;;;;;;;5133107;27;20055;-70
2021/12/24 05:03:45;;;;;;;32.28;11.77;;;;;;;;;;5126431;27;20518;-70
2021/12/24 05:08:50;;;;;;;26.75;9.52;;;;;;;;;;5130332;27;20063;-70
2021/12/24 05:11:17;;;;;;;25.95;9.30;;;;;;;;;;5134914;27;20057;-70
2021/12/24 05:13:44;;;;;;;23.88;9.65;;;;;;;;;;5129272;27;20049;-71
2021/12/24 05:16:21;;;;;;;27.17;8.43;;;;;;;;;;5133565;27;20048;-71
2021/12/24 05:21:33;;;;;;;32.55;10.20;;;;;;;;;;5116155;27;20113;-69
2021/12/24 05:24:01;;;;;;;31.25;9.43;;;;;;;;;;5114455;27;20051;-71
2021/12/24 05:26:27;;;;;;;20.65;8.65;;;;;;;;;;5125057;27;20051;-71
2021/12/24 05:28:54;;;;;;;25.00;8.45;;;;;;;;;;5118355;27;20048;-71
2021/12/24 05:31:20;;;;;;;22.13;8.32;;;;;;;;;;5127406;27;20055;-71
2021/12/24 05:33:46;;;;;;;22.38;9.00;;;;;;;;;;5117821;27;20055;-70
2021/12/24 05:36:13;;;;;;;26.17;7.82;;;;;;;;;;5119930;27;20052;-70
2021/12/24 05:38:39;;;;;;;14.68;7.07;;;;;;;;;;5122170;27;20051;-70
2021/12/24 05:41:05;;;;;;;26.45;8.40;;;;;;;;;;5113374;27;20052;-71
2021/12/24 05:43:32;;;;;;;24.55;8.35;;;;;;;;;;5115875;27;20135;-70
2021/12/24 05:45:58;;;;;;;19.75;8.50;;;;;;;;;;5134090;27;20055;-70
2021/12/24 05:48:24;;;;;;;22.42;7.65;;;;;;;;;;5133363;27;20087;-70
2021/12/24 05:50:51;;;;;;;22.08;7.18;;;;;;;;;;5122351;27;20504;-70
2021/12/24 05:53:17;;;;;;;22.05;7.70;;;;;;;;;;5121618;27;20054;-70
2021/12/24 05:55:43;;;;;;;29.10;9.00;;;;;;;;;;5132019;27;20048;-70
2021/12/24 05:58:10;;;;;;;19.23;7.80;;;;;;;;;;5133608;27;20079;-70
2021/12/24 06:00:38;;;;;;;22.42;8.13;;;;;;;;;;5118588;27;20056;-71
2021/12/24 06:03:06;;;;;;;28.27;8.10;;;;;;;;;;5126984;27;20423;-71
2021/12/24 06:05:33;;;;;;;24.83;7.10;;;;;;;;;;5132758;27;20105;-71
2021/12/24 06:08:00;;;;;;;24.60;7.20;;;;;;;;;;5132127;27;20412;-70
2021/12/24 06:10:26;;;;;;;21.33;7.50;;;;;;;;;;5130065;27;20205;-71
2021/12/24 06:12:53;;;;;;;28.35;7.70;;;;;;;;;;5112203;28;20056;-70
2021/12/24 06:15:24;;;;;;;17.55;7.15;;;;;;;;;;5130995;27;20050;-70
2021/12/24 06:17:54;;;;;;;24.30;7.55;;;;;;;;;;5132205;27;20058;-70
2021/12/24 06:20:21;;;;;;;18.17;6.63;;;;;;;;;;5131160;27;20056;-70
2021/12/24 06:22:48;;;;;;;23.02;6.82;;;;;;;;;;5130571;27;20596;-70
2021/12/24 06:25:14;;;;;;;22.80;6.07;;;;;;;;;;5126785;27;20052;-72
2021/12/24 06:27:41;;;;;;;21.13;7.00;;;;;;;;;;5131922;27;20058;-70
2021/12/24 06:30:07;;;;;;;21.33;6.53;;;;;;;;;;5128076;27;20521;-70
2021/12/24 06:32:34;;;;;;;24.73;7.30;;;;;;;;;;5130456;27;20058;-70
2021/12/24 06:35:00;;;;;;;24.23;5.85;;;;;;;;;;5133513;27;20522;-70
2021/12/24 06:37:26;;;;;;;21.05;6.25;;;;;;;;;;5133296;27;20048;-70
2021/12/24 06:39:54;;;;;;;21.58;6.53;;;;;;;;;;5123780;27;20163;-70
2021/12/24 06:42:25;;;;;;;26.80;7.32;;;;;;;;;;5104978;27;20052;-71
2021/12/24 06:44:52;;;;;;;28.23;7.50;;;;;;;;;;5115223;27;20074;-70
2021/12/24 06:47:19;;;;;;;20.17;6.47;;;;;;;;;;5127578;27;20094;-70
2021/12/24 06:49:45;;;;;;;31.02;6.95;;;;;;;;;;5118171;27;20053;-70
2021/12/24 06:52:11;;;;;;;22.80;5.85;;;;;;;;;;5127907;27;20598;-66
2021/12/24 06:54:38;;;;;;;23.45;6.35;;;;;;;;;;5120612;27;20060;-70
2021/12/24 06:57:05;;;;;;;19.23;5.80;;;;;;;;;;5119312;27;20132;-69
2021/12/24 06:59:31;;;;;;;23.27;6.30;;;;;;;;;;5123576;27;20460;-70
2021/12/24 07:01:59;;;;;;;24.20;6.45;;;;;;;;;;5127243;27;20051;-69
2021/12/24 07:04:26;;;;;;;22.08;6.38;;;;;;;;;;5136663;27;20055;-71
2021/12/24 07:06:53;;;;;;;23.40;6.55;;;;;;;;;;5136091;27;20052;-69
2021/12/24 07:09:19;;;;;;;19.63;5.38;;;;;;;;;;5117375;27;20641;-71
2021/12/24 07:11:47;;;;;;;17.52;6.10;;;;;;;;;;5135787;27;20142;-71
2021/12/24 07:14:13;;;;;;;31.35;7.43;;;;;;;;;;5133918;27;20135;-69
2021/12/24 07:16:45;;;;;;;21.83;6.45;;;;;;;;;;5117321;27;20503;-71
2021/12/24 07:19:11;;;;;;;26.75;7.75;;;;;;;;;;5118371;27;20052;-70
2021/12/24 07:21:38;;;;;;;25.20;6.45;;;;;;;;;;5116883;27;20052;-69
2021/12/24 07:24:06;;;;;;;18.80;6.63;;;;;;;;;;5125903;27;20048;-69
2021/12/24 07:26:33;;;;;;;20.05;7.05;;;;;;;;;;5135463;27;20058;-70
2021/12/24 07:29:00;;;;;;;26.25;6.68;;;;;;;;;;5132000;27;20097;-70
2021/12/24 07:31:26;;;;;;;23.98;6.43;;;;;;;;;;5129811;27;20052;-70
2021/12/24 07:33:53;;;;;;;24.65;6.97;;;;;;;;;;5116053;27;20109;-70
2021/12/24 07:36:19;;;;;;;23.67;6.97;;;;;;;;;;5115976;27;20052;-69
2021/12/24 07:38:45;;;;;;;25.42;6.63;;;;;;;;;;5123795;27;20090;-69
2021/12/24 07:41:14;;;;;;;22.15;7.32;;;;;;;;;;5136723;27;20066;-69
2021/12/24 07:43:40;;;;;;;26.75;7.00;;;;;;;;;;5134978;27;20082;-72
2021/12/24 07:46:06;;;;;;;25.55;7.10;;;;;;;;;;5134741;27;20166;-70
2021/12/24 07:48:43;;;;;;;28.65;7.78;;;;;;;;;;5115824;27;20048;-69
2021/12/24 07:53:36;;;;;;;27.90;7.68;;;;;;;;;;5136181;27;20047;-71
2021/12/24 07:56:04;;;;;;;23.13;6.32;;;;;;;;;;5131572;27;20052;-70
2021/12/24 07:58:36;;;;;;;17.38;6.53;;;;;;;;;;5126381;27;20134;-69
2021/12/24 08:01:03;;;;;;;25.00;6.63;;;;;;;;;;5124532;27;20051;-70
2021/12/24 08:03:29;;;;;;;20.10;6.97;;;;;;;;;;5127944;27;20048;-70
2021/12/24 08:05:56;;;;;;;25.55;7.80;;;;;;;;;;5119775;27;20503;-69
2021/12/24 08:08:22;;;;;;;20.92;7.20;;;;;;;;;;5132691;27;20060;-70
2021/12/24 08:10:48;;;;;;;20.55;6.80;;;;;;;;;;5134255;27;20066;-69
2021/12/24 08:13:15;;;;;;;27.00;7.15;;;;;;;;;;5124918;27;20052;-70
2021/12/24 08:15:42;;;;;;;26.85;8.27;;;;;;;;;;5122982;27;20054;-70
2021/12/24 08:18:09;;;;;;;31.92;6.85;;;;;;;;;;5126362;27;20105;-70
2021/12/24 08:20:35;;;;;;;23.20;7.40;;;;;;;;;;5130152;27;20489;-70
2021/12/24 08:23:01;;;;;;;25.70;6.07;;;;;;;;;;5116280;27;20170;-70
2021/12/24 08:25:28;;;;;;;20.15;6.25;;;;;;;;;;5120580;27;20142;-70
2021/12/24 08:27:54;;;;;;;20.13;6.50;;;;;;;;;;5128258;27;20048;-69
2021/12/24 08:30:20;;;;;;;27.08;6.22;;;;;;;;;;5117811;27;20056;-68
2021/12/24 08:32:47;;;;;;;25.30;5.68;;;;;;;;;;5127651;27;20056;-69
2021/12/24 08:35:15;;;;;;;27.13;6.78;;;;;;;;;;5124501;27;20047;-68
2021/12/24 08:37:42;;;;;;;23.30;6.65;;;;;;;;;;5123990;27;20488;-69
2021/12/24 08:40:09;;;;;;;20.30;6.35;;;;;;;;;;5114915;27;20047;-69
2021/12/24 08:42:36;;;;;;;27.55;7.22;;;;;;;;;;5128111;27;20135;-69
2021/12/24 08:45:03;;;;;;;25.15;7.10;;;;;;;;;;5135212;27;20056;-69
2021/12/24 08:47:29;;;;;;;23.17;7.18;;;;;;;;;;5120106;27;20136;-69
2021/12/24 08:49:56;;;;;;;29.02;5.80;;;;;;;;;;5122351;27;20567;-69
2021/12/24 08:52:22;;;;;;;20.80;5.97;;;;;;;;;;5131808;27;20380;-69
2021/12/24 08:54:48;;;;;;;16.60;5.43;;;;;;;;;;5134350;27;20048;-69
2021/12/24 08:57:15;;;;;;;31.67;6.72;;;;;;;;;;5134707;27;20475;-69
2021/12/24 08:59:41;;;;;;;22.33;5.95;;;;;;;;;;5130146;27;20052;-70
2021/12/24 09:02:07;;;;;;;32.25;7.45;;;;;;;;;;5134688;27;20048;-72
2021/12/24 09:04:34;;;;;;;17.35;5.38;;;;;;;;;;5130658;27;20142;-72
2021/12/24 09:07:00;;;;;;;29.42;6.65;;;;;;;;;;5124329;27;20054;-70
2021/12/24 09:09:27;;;;;;;26.52;5.90;;;;;;;;;;5136764;27;20502;-71
2021/12/24 09:11:54;;;;;;;21.77;5.28;;;;;;;;;;5129895;27;20051;-70
2021/12/24 09:14:20;;;;;;;19.50;6.75;;;;;;;;;;5133318;27;20150;-69
2021/12/24 09:16:48;;;;;;;27.40;5.97;;;;;;;;;;5132000;27;20477;-70
2021/12/24 09:19:18;;;;;;;20.98;6.70;;;;;;;;;;5132352;27;20094;-69
2021/12/24 09:21:45;;;;;;;42.67;8.65;;;;;;;;;;5121058;27;20054;-72
2021/12/24 09:24:11;;;;;;;22.58;6.25;;;;;;;;;;5134742;27;20051;-71
2021/12/24 09:26:38;;;;;;;30.27;7.43;;;;;;;;;;5134338;27;20502;-70
2021/12/24 09:29:06;;;;;;;23.15;6.25;;;;;;;;;;5134746;27;20043;-70
2021/12/24 09:31:33;;;;;;;25.90;7.45;;;;;;;;;;5134538;27;20143;-69
2021/12/24 09:33:59;;;;;;;17.35;5.82;;;;;;;;;;5133688;27;20117;-69
2021/12/24 09:36:28;;;;;;;25.25;6.95;;;;;;;;;;5134584;27;20153;-72
2021/12/24 09:39:00;;;;;;;22.35;7.78;;;;;;;;;;5133391;27;20120;-70
2021/12/24 09:41:27;;;;;;;23.58;5.95;;;;;;;;;;5128718;27;20052;-72
2021/12/24 09:43:56;;;;;;;23.55;6.30;;;;;;;;;;5130698;27;20047;-70
2021/12/24 09:46:22;;;;;;;28.85;6.00;;;;;;;;;;5132765;27;20051;-70
2021/12/24 09:48:49;;;;;;;24.63;6.72;;;;;;;;;;5133832;27;20051;-71
2021/12/24 09:51:15;;;;;;;25.90;6.78;;;;;;;;;;5133990;27;20073;-71
2021/12/24 09:53:42;;;;;;;29.83;7.25;;;;;;;;;;5134166;27;20482;-70
2021/12/24 09:56:08;;;;;;;23.45;8.05;;;;;;;;;;5134077;27;20483;-71
2021/12/24 09:58:34;;;;;;;25.35;7.97;;;;;;;;;;5133960;27;20058;-70
2021/12/24 10:01:02;;;;;;;29.23;7.47;;;;;;;;;;5132053;27;20127;-69
2021/12/24 10:03:33;;;;;;;25.17;7.80;;;;;;;;;;5134195;27;20052;-70
2021/12/24 10:06:00;;;;;;;32.28;9.57;;;;;;;;;;5127825;27;20078;-70
2021/12/24 10:08:27;;;;;;;26.00;8.48;;;;;;;;;;5121265;27;20074;-70
2021/12/24 10:11:04;;;;;;;22.25;7.18;;;;;;;;;;5132729;27;20051;-70
2021/12/24 10:13:39;;;;;;;26.00;7.65;;;;;;;;;;5130545;27;20056;-70
2021/12/24 10:16:07;;;;;;;29.02;6.72;;;;;;;;;;5127541;27;20043;-71
2021/12/24 10:18:38;;;;;;;24.33;6.93;;;;;;;;;;5122895;27;20051;-71
2021/12/24 10:21:13;;;;;;;22.15;6.75;;;;;;;;;;5130500;27;20505;-70
2021/12/24 10:23:39;;;;;;;21.10;6.68;;;;;;;;;;5118919;27;20048;-71
2021/12/24 10:26:10;;;;;;;24.85;7.57;;;;;;;;;;5133718;27;20147;-69
2021/12/24 10:28:36;;;;;;;21.55;6.78;;;;;;;;;;5136952;27;20044;-70
2021/12/24 10:31:02;;;;;;;27.48;7.22;;;;;;;;;;5136451;27;20162;-68
2021/12/24 10:33:29;;;;;;;27.23;7.72;;;;;;;;;;5122975;27;20152;-69
2021/12/24 10:36:01;;;;;;;27.23;8.05;;;;;;;;;;5137161;27;20044;-69
2021/12/24 10:38:28;;;;;;;24.38;7.43;;;;;;;;;;5135373;27;20052;-69
2021/12/24 10:40:57;;;;;;;28.27;7.90;;;;;;;;;;5133648;27;20052;-71
2021/12/24 10:43:37;;;;;;;27.42;7.97;;;;;;;;;;5135426;27;20047;-68
2021/12/24 10:46:19;;;;;;;25.73;6.68;;;;;;;;;;5134304;27;20595;-69
2021/12/24 10:49:02;;;;;;;22.80;7.28;;;;;;;;;;5135309;27;20048;-70
2021/12/24 10:54:14;;;;;;;31.35;7.63;;;;;;;;;;5135883;27;20139;-67
2021/12/24 10:56:40;;;;;;;27.30;8.75;;;;;;;;;;5135295;27;20490;-69
2021/12/24 10:59:07;;;;;;;28.65;9.20;;;;;;;;;;5136754;27;20051;-69
2021/12/24 11:01:34;;;;;;;33.20;9.00;;;;;;;;;;5135850;27;20501;-69
2021/12/24 11:04:00;;;;;;;33.15;9.05;;;;;;;;;;5133857;27;20059;-69
2021/12/24 11:06:30;;;;;;;32.05;9.50;;;;;;;;;;5136037;27;20529;-70
2021/12/24 11:08:57;;;;;;;27.05;9.05;;;;;;;;;;5134530;27;20067;-70
2021/12/24 11:11:25;;;;;;;31.67;10.00;;;;;;;;;;5129470;27;20055;-69
2021/12/24 11:13:52;;;;;;;35.65;10.05;;;;;;;;;;5110794;27;20060;-69
2021/12/24 11:16:22;;;;;;;28.63;9.43;;;;;;;;;;5135271;27;20130;-70
2021/12/24 11:18:58;;;;;;;27.45;9.88;;;;;;;;;;5099711;27;20058;-68
2021/12/24 11:21:26;;;;;;;28.75;9.75;;;;;;;;;;5136316;27;20150;-68
2021/12/24 11:23:53;;;;;;;29.30;9.23;;;;;;;;;;5136819;27;22180;-68
2021/12/24 11:26:22;;;;;;;24.38;9.55;;;;;;;;;;5120742;27;20048;-68
2021/12/24 11:28:49;;;;;;;18.30;10.18;;;;;;;;;;5134696;27;20075;-68
2021/12/24 11:31:27;;;;;;;25.25;9.02;;;;;;;;;;5110650;27;20062;-67
2021/12/24 11:33:54;;;;;;;25.55;9.20;;;;;;;;;;5134451;27;20051;-70
2021/12/24 11:36:22;;;;;;;17.73;8.75;;;;;;;;;;5126358;27;20048;-69
2021/12/24 11:38:56;;;;;;;24.42;8.43;;;;;;;;;;5131081;27;20058;-70
2021/12/24 11:41:26;;;;;;;24.15;9.30;;;;;;;;;;5135416;27;20055;-68
2021/12/24 11:43:54;;;;;;;26.50;9.00;;;;;;;;;;5134691;27;20477;-69
2021/12/24 11:46:22;;;;;;;22.00;8.90;;;;;;;;;;5133790;27;20062;-70
2021/12/24 11:48:51;;;;;;;30.25;8.63;;;;;;;;;;5136891;27;20474;-70
2021/12/24 11:51:18;;;;;;;22.50;8.30;;;;;;;;;;5135249;27;20058;-69
2021/12/24 11:53:45;;;;;;;27.33;8.10;;;;;;;;;;5131906;27;20052;-70
2021/12/24 11:56:13;;;;;;;21.38;8.45;;;;;;;;;;5135082;27;20060;-68
2021/12/24 11:58:51;;;;;;;30.08;8.98;;;;;;;;;;5134254;27;20051;-68
2021/12/24 12:01:18;;;;;;;19.52;8.20;;;;;;;;;;5133606;27;20047;-68
2021/12/24 12:03:46;;;;;;;16.90;6.95;;;;;;;;;;5128024;27;20048;-69
2021/12/24 12:06:22;;;;;;;28.88;7.80;;;;;;;;;;5136069;27;20078;-69
2021/12/24 12:08:49;;;;;;;21.95;7.57;;;;;;;;;;5135481;27;20064;-68
2021/12/24 12:11:19;;;;;;;18.35;7.15;;;;;;;;;;5128801;27;20082;-68
2021/12/24 12:14:02;;;;;;;33.28;7.70;;;;;;;;;;5129497;27;20058;-68
2021/12/24 12:16:28;;;;;;;25.10;7.15;;;;;;;;;;5121841;27;20052;-69
2021/12/24 12:19:12;;;;;;;27.85;7.90;;;;;;;;;;5116467;27;20074;-69
2021/12/24 12:21:43;;;;;;;15.98;6.10;;;;;;;;;;5138621;27;20150;-68
2021/12/24 12:26:44;;;;;;;16.17;5.38;;;;;;;;;;5124604;27;20496;-68
2021/12/24 12:29:28;;;;;;;14.23;5.35;;;;;;;;;;5129604;27;20047;-68
2021/12/24 12:32:12;;;;;;;14.88;5.18;;;;;;;;;;5135741;27;20051;-69
2021/12/24 12:34:39;;;;;;;14.05;4.60;;;;;;;;;;5135793;27;20512;-69
2021/12/24 12:37:16;;;;;;;24.85;5.65;;;;;;;;;;5135203;27;20491;-69
2021/12/24 12:39:44;;;;;;;13.25;5.22;;;;;;;;;;5133582;27;20052;-69
2021/12/24 12:42:13;;;;;;;14.82;5.43;;;;;;;;;;5127882;27;20056;-69
2021/12/24 12:44:42;;;;;;;16.17;5.32;;;;;;;;;;5114710;28;20054;-69
2021/12/24 12:47:10;;;;;;;13.60;5.30;;;;;;;;;;5114936;28;20498;-68
2021/12/24 12:49:36;;;;;;;15.25;4.32;;;;;;;;;;5130379;27;20110;-68
2021/12/24 12:52:04;;;;;;;14.30;5.38;;;;;;;;;;5134670;27;20051;-69
2021/12/24 12:54:32;;;;;;;10.43;4.47;;;;;;;;;;5133691;27;20052;-68
2021/12/24 12:57:10;;;;;;;10.85;4.40;;;;;;;;;;5133757;27;20432;-69
2021/12/24 12:59:37;;;;;;;13.27;4.32;;;;;;;;;;5134299;27;20051;-68
2021/12/24 13:02:04;;;;;;;11.55;4.28;;;;;;;;;;5135116;27;20142;-68
2021/12/24 13:04:31;;;;;;;15.73;4.38;;;;;;;;;;5116832;27;20124;-68
2021/12/24 13:06:58;;;;;;;14.23;5.22;;;;;;;;;;5134263;27;20056;-68
2021/12/24 13:09:27;;;;;;;18.33;5.55;;;;;;;;;;5133329;27;20618;-68
2021/12/24 13:11:54;;;;;;;14.23;5.35;;;;;;;;;;5126781;27;20051;-69
2021/12/24 13:14:22;;;;;;;19.83;5.35;;;;;;;;;;5132611;27;20051;-68
2021/12/24 13:16:53;;;;;;;21.33;5.68;;;;;;;;;;5134422;27;20484;-68
2021/12/24 13:19:26;;;;;;;25.25;5.95;;;;;;;;;;5134678;27;20517;-70
2021/12/24 13:24:51;;;;;;;20.48;5.03;;;;;;;;;;5126413;27;20052;-69
2021/12/24 13:27:18;;;;;;;17.05;5.22;;;;;;;;;;5114261;28;20488;-69
2021/12/24 13:29:44;;;;;;;12.20;4.93;;;;;;;;;;5127349;27;20051;-69
2021/12/24 13:32:12;;;;;;;10.35;4.95;;;;;;;;;;5135002;27;20043;-69
2021/12/24 13:34:40;;;;;;;10.68;4.25;;;;;;;;;;5134267;27;20060;-69
2021/12/24 13:37:13;;;;;;;13.00;4.75;;;;;;;;;;5134808;27;20054;-68
2021/12/24 13:39:50;;;;;;;10.30;4.43;;;;;;;;;;5134093;27;20414;-68
2021/12/24 13:42:18;;;;;;;11.05;4.60;;;;;;;;;;5134577;27;20435;-68
2021/12/24 13:44:45;;;;;;;11.80;5.05;;;;;;;;;;5115644;27;20474;-68
2021/12/24 13:47:41;;;;;;;10.15;4.03;;;;;;;;;;5132314;27;20147;-68
2021/12/24 13:55:31;;;;;;;12.43;4.80;;;;;;;;;;5126619;27;20146;-69
2021/12/24 13:57:59;;;;;;;10.35;5.25;;;;;;;;;;5134218;27;20044;-68
2021/12/24 14:00:26;;;;;;;14.60;5.60;;;;;;;;;;5114251;27;20142;-68
2021/12/24 14:03:03;;;;;;;19.65;6.28;;;;;;;;;;5114859;27;20079;-68
2021/12/24 14:05:30;;;;;;;14.02;5.85;;;;;;;;;;5121113;27;20052;-69
2021/12/24 14:08:06;;;;;;;14.88;6.20;;;;;;;;;;5128866;27;20157;-69
2021/12/24 14:10:33;;;;;;;14.90;5.63;;;;;;;;;;5130860;27;20079;-68
2021/12/24 14:13:06;;;;;;;6.53;3.30;;;;;;;;;;5129480;27;20135;-69
2021/12/24 14:15:44;;;;;;;4.10;2.00;;;;;;;;;;5132401;27;20062;-69
2021/12/24 14:18:32;;;;;;;3.20;1.77;;;;;;;;;;5127785;27;20056;-69
2021/12/24 14:23:31;;;;;;;2.10;1.40;;;;;;;;;;5112211;27;20052;-69
2021/12/24 14:25:57;;;;;;;1.63;1.40;;;;;;;;;;5118232;27;20055;-69
2021/12/24 14:28:24;;;;;;;2.45;1.70;;;;;;;;;;5132787;27;20056;-68
2021/12/24 14:30:58;;;;;;;4.40;1.90;;;;;;;;;;5133598;27;20047;-68
2021/12/24 14:33:25;;;;;;;2.65;1.83;;;;;;;;;;5134043;27;20048;-68
2021/12/24 14:35:52;;;;;;;3.03;1.90;;;;;;;;;;5128651;27;20491;-67
2021/12/24 14:38:23;;;;;;;2.90;1.98;;;;;;;;;;5133301;27;20564;-67
2021/12/24 14:40:57;;;;;;;5.50;2.08;;;;;;;;;;5131779;27;20541;-67
2021/12/24 14:43:23;;;;;;;2.10;1.40;;;;;;;;;;5129359;27;20058;-68
2021/12/24 14:45:52;;;;;;;1.45;1.20;;;;;;;;;;5133271;27;20052;-69
2021/12/24 14:48:25;;;;;;;3.17;1.60;;;;;;;;;;5133654;27;20110;-68
2021/12/24 14:51:00;;;;;;;2.97;1.40;;;;;;;;;;5133075;27;20129;-68
2021/12/24 14:53:37;;;;;;;3.28;1.60;;;;;;;;;;5132015;27;20398;-69
2021/12/24 14:56:04;;;;;;;2.05;1.50;;;;;;;;;;5115159;27;20113;-68
2021/12/24 14:58:32;;;;;;;2.90;1.77;;;;;;;;;;5133230;27;20135;-68
2021/12/24 15:01:00;;;;;;;2.13;1.83;;;;;;;;;;5131614;27;20048;-67
2021/12/24 15:03:29;;;;;;;1.80;1.70;;;;;;;;;;5128215;27;20082;-68
2021/12/24 15:05:55;;;;;;;2.20;2.00;;;;;;;;;;5123997;27;20043;-67
2021/12/24 15:08:23;;;;;;;4.78;2.53;;;;;;;;;;5129954;27;20055;-67
2021/12/24 15:11:01;;;;;;;3.38;2.60;;;;;;;;;;5128224;27;20499;-67
2021/12/24 15:13:28;;;;;;;4.82;2.90;;;;;;;;;;5109941;27;20120;-69
2021/12/24 15:15:56;;;;;;;10.95;2.45;;;;;;;;;;5135868;27;20062;-68
2021/12/24 15:18:22;;;;;;;3.65;2.72;;;;;;;;;;5118439;27;20059;-69
2021/12/24 15:20:49;;;;;;;2.70;2.45;;;;;;;;;;5120716;27;20047;-68
2021/12/24 15:23:15;;;;;;;4.03;2.80;;;;;;;;;;5133830;27;20135;-68
2021/12/24 15:25:42;;;;;;;7.35;3.97;;;;;;;;;;5148556;27;20142;-68
2021/12/24 15:28:10;;;;;;;2.75;2.42;;;;;;;;;;5143950;27;20048;-69
2021/12/24 15:30:37;;;;;;;3.72;3.00;;;;;;;;;;5124672;27;20051;-68
2021/12/24 15:33:04;;;;;;;4.50;3.70;;;;;;;;;;5132385;27;20052;-71
2021/12/24 15:35:32;;;;;;;4.35;3.63;;;;;;;;;;5136693;27;20062;-68
2021/12/24 15:37:59;;;;;;;4.75;3.30;;;;;;;;;;5131378;27;20479;-67
2021/12/24 15:40:26;;;;;;;4.13;3.60;;;;;;;;;;5135748;27;20139;-67
2021/12/24 15:43:06;;;;;;;4.25;3.80;;;;;;;;;;5136631;27;20055;-67
2021/12/24 15:45:34;;;;;;;5.13;3.80;;;;;;;;;;5136373;27;20060;-70
2021/12/24 15:48:01;;;;;;;4.47;3.45;;;;;;;;;;5136487;27;20055;-68
2021/12/24 15:50:28;;;;;;;4.60;3.67;;;;;;;;;;5135792;27;20487;-67
2021/12/24 15:52:54;;;;;;;4.30;3.90;;;;;;;;;;5135502;27;20571;-67
2021/12/24 15:55:21;;;;;;;4.10;3.63;;;;;;;;;;5136164;27;20052;-68
2021/12/24 15:57:47;;;;;;;5.82;4.25;;;;;;;;;;5133017;27;20108;-67
2021/12/24 16:00:14;;;;;;;7.25;4.20;;;;;;;;;;5131900;27;20048;-67
2021/12/24 16:02:40;;;;;;;4.20;3.80;;;;;;;;;;5134321;27;20509;-67
2021/12/24 16:05:12;;;;;;;4.47;4.03;;;;;;;;;;5134541;27;20431;-67
2021/12/24 16:07:38;;;;;;;5.47;3.88;;;;;;;;;;5136467;27;20047;-67
2021/12/24 16:10:05;;;;;;;5.65;4.15;;;;;;;;;;5123592;27;20511;-67
2021/12/24 16:12:31;;;;;;;5.78;4.10;;;;;;;;;;5124390;27;20245;-67
2021/12/24 16:14:59;;;;;;;6.60;4.20;;;;;;;;;;5133135;27;20938;-67
2021/12/24 16:17:28;;;;;;;4.90;4.32;;;;;;;;;;5134464;27;20151;-68
2021/12/24 16:19:54;;;;;;;6.85;4.53;;;;;;;;;;5135079;27;20081;-68
2021/12/24 16:22:21;;;;;;;6.80;4.53;;;;;;;;;;5134636;27;20491;-67